createdAt,value
2019-04-21T00:01:00.458Z,16.02
2019-04-21T00:01:57.698Z,16.02
2019-04-21T00:02:55.410Z,15.93
2019-04-21T00:04:07.406Z,15.92
2019-04-21T00:05:16.498Z,15.82
2019-04-21T00:06:18.639Z,15.83
2019-04-21T00:07:14.472Z,15.84
2019-04-21T00:08:27.136Z,15.80
2019-04-21T00:09:22.629Z,15.72
2019-04-21T00:10:18.853Z,15.76
2019-04-21T00:11:20.705Z,15.76
2019-04-21T00:12:15.042Z,15.74
2019-04-21T00:13:12.384Z,15.75
2019-04-21T00:14:11.341Z,15.72
2019-04-21T00:15:07.394Z,15.65
2019-04-21T00:16:02.410Z,15.60
2019-04-21T00:17:05.402Z,15.64
2019-04-21T00:18:00.321Z,15.57
2019-04-21T00:19:03.235Z,15.56
2019-04-21T00:20:11.432Z,15.56
2019-04-21T00:20:58.595Z,15.56
2019-04-21T00:22:09.853Z,15.56
2019-04-21T00:23:15.229Z,15.51
2019-04-21T00:24:10.122Z,15.44
2019-04-21T00:25:11.857Z,15.54
2019-04-21T00:26:07.544Z,15.47
2019-04-21T00:27:14.207Z,15.38
2019-04-21T00:28:17.021Z,15.54
2019-04-21T00:29:16.509Z,15.38
2019-04-21T00:30:15.772Z,15.44
2019-04-21T00:31:14.129Z,15.41
2019-04-21T00:32:09.980Z,15.39
2019-04-21T00:33:05.190Z,15.36
2019-04-21T00:33:56.766Z,15.38
2019-04-21T00:35:00.815Z,15.35
2019-04-21T00:36:05.391Z,15.35
2019-04-21T00:37:05.747Z,15.29
2019-04-21T00:38:17.148Z,15.36
2019-04-21T00:40:01.939Z,15.31
2019-04-21T00:40:16.598Z,15.27
2019-04-21T00:41:19.338Z,15.23
2019-04-21T00:42:14.613Z,15.23
2019-04-21T00:43:09.030Z,15.13
2019-04-21T00:44:08.696Z,15.17
2019-04-21T00:45:10.749Z,15.10
2019-04-21T00:46:04.725Z,15.16
2019-04-21T00:47:09.166Z,15.16
2019-04-21T00:48:17.958Z,15.13
2019-04-21T00:49:14.147Z,15.10
2019-04-21T00:50:18.046Z,15.16
2019-04-21T00:52:35.326Z,15.10
2019-04-21T00:53:23.130Z,15.02
2019-04-21T00:54:29.672Z,14.99
2019-04-21T00:56:34.439Z,15.07
2019-04-21T00:57:22.184Z,15.01
2019-04-21T00:58:26.973Z,15.02
2019-04-21T00:59:19.286Z,14.96
2019-04-21T01:00:20.387Z,14.96
2019-04-21T01:01:14.969Z,14.96
2019-04-21T01:02:19.916Z,14.91
2019-04-21T01:03:20.628Z,14.88
2019-04-21T01:04:16.925Z,14.80
2019-04-21T01:06:22.738Z,14.81
2019-04-21T01:07:17.658Z,14.78
2019-04-21T01:08:13.242Z,14.80
2019-04-21T01:09:16.613Z,14.78
2019-04-21T01:10:09.591Z,14.81
2019-04-21T01:11:17.952Z,14.77
2019-04-21T01:12:17.137Z,14.70
2019-04-21T01:13:21.642Z,14.72
2019-04-21T01:14:22.228Z,14.69
2019-04-21T01:15:26.148Z,14.60
2019-04-21T01:16:21.000Z,14.69
2019-04-21T01:17:19.299Z,14.69
2019-04-21T01:18:16.494Z,14.54
2019-04-21T01:19:17.304Z,14.57
2019-04-21T01:20:11.879Z,14.54
2019-04-21T01:20:55.152Z,14.55
2019-04-21T01:21:54.142Z,14.55
2019-04-21T01:22:54.128Z,14.47
2019-04-21T01:23:55.640Z,14.51
2019-04-21T01:25:04.355Z,14.50
2019-04-21T01:26:06.838Z,14.47
2019-04-21T01:27:04.731Z,14.45
2019-04-21T01:28:16.736Z,14.43
2019-04-21T01:29:11.945Z,14.50
2019-04-21T01:30:16.324Z,14.50
2019-04-21T01:31:13.584Z,14.47
2019-04-21T01:32:18.981Z,14.36
2019-04-21T01:33:16.930Z,14.39
2019-04-21T01:34:14.842Z,14.43
2019-04-21T01:35:14.695Z,14.32
2019-04-21T01:36:14.547Z,14.33
2019-04-21T01:37:14.559Z,14.36
2019-04-21T01:38:22.656Z,14.25
2019-04-21T01:39:34.899Z,14.20
2019-04-21T01:40:25.668Z,14.17
2019-04-21T01:41:21.344Z,14.20
2019-04-21T01:42:19.148Z,14.25
2019-04-21T01:43:17.623Z,14.24
2019-04-21T01:44:15.886Z,14.27
2019-04-21T01:45:14.737Z,14.20
2019-04-21T01:46:13.923Z,14.20
2019-04-21T01:47:11.820Z,14.10
2019-04-21T01:48:10.339Z,14.22
2019-04-21T01:49:10.620Z,14.28
2019-04-21T01:50:05.626Z,14.21
2019-04-21T01:51:11.440Z,14.20
2019-04-21T01:53:19.752Z,14.20
2019-04-21T01:54:14.669Z,14.12
2019-04-21T01:55:13.809Z,14.20
2019-04-21T01:56:16.960Z,14.10
2019-04-21T01:57:15.578Z,14.06
2019-04-21T01:58:07.007Z,14.04
2019-04-21T01:59:04.929Z,14.07
2019-04-21T02:00:04.710Z,14.09
2019-04-21T02:01:09.761Z,14.07
2019-04-21T02:02:20.314Z,14.06
2019-04-21T02:03:36.217Z,14.04
2019-04-21T02:04:13.944Z,14.07
2019-04-21T02:05:17.507Z,14.03
2019-04-21T02:06:17.078Z,13.95
2019-04-21T02:07:15.245Z,13.95
2019-04-21T02:08:11.027Z,14.03
2019-04-21T02:09:10.124Z,13.89
2019-04-21T02:10:22.657Z,13.89
2019-04-21T02:11:16.934Z,13.88
2019-04-21T02:12:14.690Z,13.87
2019-04-21T02:13:13.071Z,13.87
2019-04-21T02:14:19.608Z,13.87
2019-04-21T02:15:20.218Z,13.84
2019-04-21T02:16:16.933Z,13.84
2019-04-21T02:17:20.429Z,13.73
2019-04-21T02:18:18.566Z,13.73
2019-04-21T02:19:11.668Z,13.75
2019-04-21T02:20:06.948Z,13.78
2019-04-21T02:21:04.150Z,13.75
2019-04-21T02:22:11.218Z,13.73
2019-04-21T02:24:27.320Z,13.73
2019-04-21T02:25:31.702Z,13.62
2019-04-21T02:26:21.144Z,13.62
2019-04-21T02:27:16.074Z,13.69
2019-04-21T02:28:19.334Z,13.64
2019-04-21T02:29:20.561Z,13.57
2019-04-21T02:30:27.620Z,13.51
2019-04-21T02:31:28.115Z,13.57
2019-04-21T02:32:28.650Z,13.51
2019-04-21T02:34:28.846Z,13.48
2019-04-21T02:35:34.096Z,13.41
2019-04-21T02:36:46.876Z,13.41
2019-04-21T02:37:36.808Z,13.45
2019-04-21T02:39:35.558Z,13.33
2019-04-21T02:41:22.309Z,13.36
2019-04-21T02:42:26.466Z,13.30
2019-04-21T02:43:25.085Z,13.30
2019-04-21T02:44:32.712Z,13.36
2019-04-21T02:45:22.918Z,13.26
2019-04-21T02:46:35.877Z,13.30
2019-04-21T02:47:38.772Z,13.36
2019-04-21T02:49:37.737Z,13.28
2019-04-21T02:50:28.719Z,13.29
2019-04-21T02:51:27.380Z,13.28
2019-04-21T02:52:33.449Z,13.15
2019-04-21T02:53:32.108Z,13.20
2019-04-21T02:55:22.268Z,13.15
2019-04-21T02:56:28.416Z,13.12
2019-04-21T02:57:23.182Z,13.10
2019-04-21T02:58:34.392Z,13.17
2019-04-21T02:59:23.360Z,13.11
2019-04-21T03:00:32.217Z,13.11
2019-04-21T03:02:39.055Z,13.11
2019-04-21T03:03:29.030Z,13.04
2019-04-21T03:04:30.333Z,13.03
2019-04-21T03:05:29.675Z,13.12
2019-04-21T03:06:33.001Z,12.97
2019-04-21T03:07:19.250Z,12.96
2019-04-21T03:08:33.949Z,13.03
2019-04-21T03:09:24.407Z,13.00
2019-04-21T03:10:28.694Z,13.01
2019-04-21T03:11:17.184Z,12.92
2019-04-21T03:13:33.633Z,13.03
2019-04-21T03:14:46.187Z,13.00
2019-04-21T03:15:29.325Z,12.95
2019-04-21T03:17:43.604Z,12.92
2019-04-21T03:18:38.045Z,12.90
2019-04-21T03:19:33.060Z,12.89
2019-04-21T03:20:27.409Z,12.86
2019-04-21T03:21:25.926Z,12.96
2019-04-21T03:23:38.509Z,12.95
2019-04-21T03:24:24.706Z,12.78
2019-04-21T03:25:39.129Z,12.75
2019-04-21T03:29:28.257Z,12.79
2019-04-21T03:30:52.909Z,12.77
2019-04-21T03:32:02.118Z,12.74
2019-04-21T03:34:43.455Z,12.71
2019-04-21T03:37:33.231Z,12.67
2019-04-21T03:38:28.866Z,12.70
2019-04-21T03:40:18.803Z,12.62
2019-04-21T03:42:36.810Z,12.62
2019-04-21T03:43:44.254Z,12.65
2019-04-21T03:44:26.691Z,12.67
2019-04-21T03:46:43.681Z,12.64
2019-04-21T03:47:39.857Z,12.59
2019-04-21T03:48:33.161Z,12.64
2019-04-21T03:49:27.974Z,12.56
2019-04-21T03:50:27.659Z,12.60
2019-04-21T03:51:50.523Z,12.64
2019-04-21T03:53:25.052Z,12.46
2019-04-21T03:54:30.879Z,12.59
2019-04-21T03:56:45.287Z,12.62
2019-04-21T03:57:32.424Z,12.59
2019-04-21T03:59:16.561Z,12.54
2019-04-21T04:00:42.745Z,12.54
2019-04-21T04:01:41.032Z,12.52
2019-04-21T04:02:36.520Z,12.54
2019-04-21T04:03:42.655Z,12.57
2019-04-21T04:04:30.650Z,12.54
2019-04-21T04:05:42.787Z,12.54
2019-04-21T04:06:24.528Z,12.60
2019-04-21T04:08:31.517Z,12.57
2019-04-21T04:09:27.298Z,12.59
2019-04-21T04:10:28.808Z,12.67
2019-04-21T04:11:31.032Z,12.60
2019-04-21T04:12:23.143Z,12.53
2019-04-21T04:13:27.652Z,12.60
2019-04-21T04:15:31.097Z,12.57
2019-04-21T04:17:25.530Z,12.71
2019-04-21T04:18:39.355Z,12.65
2019-04-21T04:19:26.450Z,12.70
2019-04-21T04:20:28.051Z,12.70
2019-04-21T04:21:30.809Z,12.68
2019-04-21T04:23:20.187Z,12.70
2019-04-21T04:24:42.647Z,12.67
2019-04-21T04:25:35.252Z,12.62
2019-04-21T04:26:22.888Z,12.64
2019-04-21T04:27:51.258Z,12.68
2019-04-21T04:28:28.893Z,12.64
2019-04-21T04:30:29.655Z,12.62
2019-04-21T04:32:23.167Z,12.64
2019-04-21T04:33:27.895Z,12.68
2019-04-21T04:35:34.246Z,12.70
2019-04-21T04:36:33.971Z,12.67
2019-04-21T04:37:32.654Z,12.67
2019-04-21T04:39:35.829Z,12.70
2019-04-21T04:41:43.669Z,12.62
2019-04-21T04:42:31.634Z,12.59
2019-04-21T04:44:39.535Z,12.52
2019-04-21T04:45:40.626Z,12.54
2019-04-21T04:46:35.262Z,12.56
2019-04-21T04:47:22.882Z,12.50
2019-04-21T04:48:19.339Z,12.47
2019-04-21T04:49:39.056Z,12.46
2019-04-21T04:50:37.355Z,12.46
2019-04-21T04:51:33.423Z,12.45
2019-04-21T04:54:32.423Z,12.35
2019-04-21T04:55:28.578Z,12.34
2019-04-21T04:56:43.420Z,12.39
2019-04-21T04:57:33.851Z,12.32
2019-04-21T04:58:35.519Z,12.35
2019-04-21T04:59:32.513Z,12.38
2019-04-21T05:01:32.723Z,12.41
2019-04-21T05:02:29.831Z,12.38
2019-04-21T05:04:25.416Z,12.45
2019-04-21T05:05:26.666Z,12.45
2019-04-21T05:07:27.347Z,12.45
2019-04-21T05:08:33.529Z,12.56
2019-04-21T05:10:32.445Z,12.59
2019-04-21T05:11:40.239Z,12.54
2019-04-21T05:13:26.472Z,12.62
2019-04-21T05:15:16.097Z,12.65
2019-04-21T05:16:36.303Z,12.65
2019-04-21T05:17:30.907Z,12.70
2019-04-21T05:18:25.182Z,12.74
2019-04-21T05:19:42.603Z,12.77
2019-04-21T05:21:30.209Z,12.77
2019-04-21T05:23:12.114Z,12.86
2019-04-21T05:24:13.563Z,12.82
2019-04-21T05:25:08.594Z,12.92
2019-04-21T05:26:06.636Z,12.95
2019-04-21T05:27:07.481Z,12.97
2019-04-21T05:28:04.892Z,12.92
2019-04-21T05:29:02.178Z,12.96
2019-04-21T05:30:17.598Z,13.00
2019-04-21T05:31:19.799Z,13.01
2019-04-21T05:32:13.616Z,13.00
2019-04-21T05:33:18.796Z,13.17
2019-04-21T05:34:10.784Z,13.14
2019-04-21T05:35:14.608Z,13.19
2019-04-21T05:36:13.791Z,13.26
2019-04-21T05:37:14.214Z,13.25
2019-04-21T05:38:12.798Z,13.25
2019-04-21T05:39:08.941Z,13.28
2019-04-21T05:40:08.342Z,13.28
2019-04-21T05:41:05.279Z,13.41
2019-04-21T05:42:00.774Z,13.44
2019-04-21T05:43:10.810Z,13.44
2019-04-21T05:44:13.233Z,13.49
2019-04-21T05:45:19.556Z,13.54
2019-04-21T05:46:13.759Z,13.49
2019-04-21T05:47:20.919Z,13.63
2019-04-21T05:48:24.245Z,13.62
2019-04-21T05:49:09.286Z,13.63
2019-04-21T05:50:15.018Z,13.77
2019-04-21T05:51:08.855Z,13.75
2019-04-21T05:52:08.135Z,13.81
2019-04-21T05:53:20.906Z,13.88
2019-04-21T05:54:23.078Z,13.85
2019-04-21T05:55:16.693Z,13.96
2019-04-21T05:56:17.658Z,13.99
2019-04-21T05:57:10.403Z,14.10
2019-04-21T05:58:12.085Z,14.12
2019-04-21T05:59:12.088Z,14.17
2019-04-21T06:00:20.106Z,14.18
2019-04-21T06:01:33.100Z,14.35
2019-04-21T06:03:19.741Z,14.35
2019-04-21T06:04:34.159Z,14.37
2019-04-21T06:05:20.355Z,14.50
2019-04-21T06:06:22.009Z,14.47
2019-04-21T06:07:21.293Z,14.52
2019-04-21T06:08:15.776Z,14.55
2019-04-21T06:09:14.535Z,14.60
2019-04-21T06:10:12.629Z,14.72
2019-04-21T06:11:17.920Z,14.78
2019-04-21T06:12:16.050Z,14.75
2019-04-21T06:13:18.684Z,14.81
2019-04-21T06:14:18.312Z,14.91
2019-04-21T06:15:14.213Z,14.95
2019-04-21T06:16:20.170Z,14.99
2019-04-21T06:17:22.530Z,15.02
2019-04-21T06:18:20.112Z,15.16
2019-04-21T06:19:12.819Z,15.11
2019-04-21T06:20:13.690Z,15.23
2019-04-21T06:21:26.285Z,15.34
2019-04-21T06:22:17.778Z,15.32
2019-04-21T06:23:13.565Z,15.39
2019-04-21T06:24:18.806Z,15.44
2019-04-21T06:26:28.224Z,15.49
2019-04-21T06:27:19.437Z,15.53
2019-04-21T06:28:21.026Z,15.54
2019-04-21T06:29:18.159Z,15.67
2019-04-21T06:30:10.675Z,15.74
2019-04-21T06:31:30.717Z,15.76
2019-04-21T06:33:15.606Z,15.84
2019-04-21T06:33:16.901Z,15.80
2019-04-21T06:34:18.625Z,15.92
2019-04-21T06:35:24.228Z,16.00
2019-04-21T06:36:30.602Z,16.01
2019-04-21T06:37:39.037Z,15.93
2019-04-21T06:38:22.255Z,16.11
2019-04-21T06:39:16.605Z,16.15
2019-04-21T06:40:21.038Z,16.25
2019-04-21T06:41:21.520Z,16.28
2019-04-21T06:42:16.417Z,16.27
2019-04-21T06:43:27.440Z,16.34
2019-04-21T06:45:18.844Z,16.42
2019-04-21T06:46:20.689Z,16.48
2019-04-21T06:47:24.470Z,16.43
2019-04-21T06:48:18.683Z,16.58
2019-04-21T06:49:08.588Z,16.60
2019-04-21T06:50:18.955Z,16.71
2019-04-21T06:51:16.727Z,16.83
2019-04-21T06:52:29.858Z,16.83
2019-04-21T06:53:24.113Z,16.83
2019-04-21T06:54:14.354Z,16.89
2019-04-21T06:55:13.827Z,16.97
2019-04-21T06:56:13.902Z,16.98
2019-04-21T06:57:16.967Z,16.98
2019-04-21T06:58:11.641Z,17.12
2019-04-21T06:59:12.042Z,17.11
2019-04-21T07:00:15.042Z,17.26
2019-04-21T07:01:16.127Z,17.31
2019-04-21T07:02:30.720Z,17.36
2019-04-21T07:05:15.047Z,17.36
2019-04-21T07:06:16.982Z,17.54
2019-04-21T07:07:11.540Z,17.59
2019-04-21T07:08:31.510Z,17.62
2019-04-21T07:10:14.350Z,17.71
2019-04-21T07:11:08.347Z,17.68
2019-04-21T07:12:14.177Z,17.86
2019-04-21T07:13:10.634Z,17.89
2019-04-21T07:14:26.011Z,17.86
2019-04-21T07:15:11.334Z,18.02
2019-04-21T07:16:19.157Z,18.05
2019-04-21T07:17:20.317Z,18.08
2019-04-21T07:18:14.172Z,18.21
2019-04-21T07:19:20.355Z,18.18
2019-04-21T07:20:15.845Z,18.26
2019-04-21T07:21:15.822Z,18.33
2019-04-21T07:22:15.829Z,18.41
2019-04-21T07:23:20.485Z,18.45
2019-04-21T07:24:21.856Z,18.45
2019-04-21T07:25:13.766Z,18.47
2019-04-21T07:26:03.062Z,18.58
2019-04-21T07:27:17.466Z,18.52
2019-04-21T07:28:12.761Z,18.69
2019-04-21T07:29:17.104Z,18.73
2019-04-21T07:30:13.543Z,18.70
2019-04-21T07:31:17.799Z,18.69
2019-04-21T07:32:15.333Z,18.84
2019-04-21T07:33:33.668Z,18.95
2019-04-21T07:34:19.748Z,19.02
2019-04-21T07:35:15.035Z,19.08
2019-04-21T07:36:16.235Z,19.11
2019-04-21T07:37:12.199Z,19.08
2019-04-21T07:38:09.668Z,19.11
2019-04-21T07:39:10.323Z,19.28
2019-04-21T07:40:07.885Z,19.31
2019-04-21T07:41:02.243Z,19.40
2019-04-21T07:42:09.149Z,19.47
2019-04-21T07:43:09.039Z,19.51
2019-04-21T07:44:06.248Z,19.63
2019-04-21T07:45:07.012Z,19.63
2019-04-21T07:46:08.955Z,19.65
2019-04-21T07:47:09.735Z,19.71
2019-04-21T07:48:08.291Z,19.83
2019-04-21T07:49:14.317Z,19.95
2019-04-21T07:50:06.869Z,19.96
2019-04-21T07:51:15.437Z,19.94
2019-04-21T07:52:16.056Z,19.98
2019-04-21T07:53:14.196Z,20.11
2019-04-21T07:54:20.080Z,20.23
2019-04-21T07:55:22.077Z,20.23
2019-04-21T07:55:53.664Z,20.31
2019-04-21T07:57:05.322Z,20.39
2019-04-21T07:58:24.429Z,20.39
2019-04-21T07:59:12.715Z,20.50
2019-04-21T08:01:16.685Z,20.57
2019-04-21T08:02:15.683Z,20.74
2019-04-21T08:03:13.786Z,20.70
2019-04-21T08:04:24.811Z,20.72
2019-04-21T08:05:16.253Z,20.74
2019-04-21T08:06:19.343Z,20.77
2019-04-21T08:07:15.112Z,20.84
2019-04-21T08:08:08.142Z,20.76
2019-04-21T08:09:11.837Z,20.85
2019-04-21T08:10:10.494Z,20.98
2019-04-21T08:11:11.001Z,21.04
2019-04-21T08:12:12.724Z,21.09
2019-04-21T08:13:12.606Z,21.16
2019-04-21T08:14:13.938Z,21.21
2019-04-21T08:15:17.663Z,21.21
2019-04-21T08:16:12.817Z,21.28
2019-04-21T08:17:12.423Z,21.37
2019-04-21T08:18:13.303Z,21.37
2019-04-21T08:19:15.570Z,21.47
2019-04-21T08:20:07.446Z,21.56
2019-04-21T08:21:06.164Z,21.56
2019-04-21T08:22:11.039Z,21.61
2019-04-21T08:23:13.073Z,21.69
2019-04-21T08:24:13.119Z,21.65
2019-04-21T08:25:13.106Z,21.69
2019-04-21T08:26:07.732Z,21.84
2019-04-21T08:27:13.886Z,21.86
2019-04-21T08:28:09.055Z,21.90
2019-04-21T08:29:18.925Z,21.91
2019-04-21T08:30:11.093Z,22.03
2019-04-21T08:31:18.388Z,22.00
2019-04-21T08:33:23.382Z,22.12
2019-04-21T08:34:17.425Z,22.12
2019-04-21T08:35:34.375Z,22.12
2019-04-21T08:36:19.363Z,22.12
2019-04-21T08:37:13.919Z,22.21
2019-04-21T08:38:08.835Z,22.27
2019-04-21T08:39:12.939Z,22.27
2019-04-21T08:41:08.652Z,22.42
2019-04-21T08:42:10.949Z,22.46
2019-04-21T08:43:12.583Z,22.47
2019-04-21T08:44:15.127Z,22.51
2019-04-21T08:45:15.066Z,22.60
2019-04-21T08:46:13.775Z,22.64
2019-04-21T08:47:13.745Z,22.61
2019-04-21T08:48:12.443Z,22.62
2019-04-21T08:49:08.061Z,22.62
2019-04-21T08:50:11.755Z,22.72
2019-04-21T08:51:22.489Z,22.70
2019-04-21T08:52:16.730Z,22.80
2019-04-21T08:53:09.446Z,22.82
2019-04-21T08:54:15.075Z,22.88
2019-04-21T08:55:14.781Z,22.94
2019-04-21T08:57:20.159Z,23.02
2019-04-21T08:58:15.552Z,23.09
2019-04-21T08:59:15.181Z,23.15
2019-04-21T09:00:12.486Z,23.23
2019-04-21T09:01:19.171Z,23.22
2019-04-21T09:02:06.290Z,23.33
2019-04-21T09:03:06.789Z,23.38
2019-04-21T09:04:14.058Z,23.36
2019-04-21T09:05:11.116Z,23.40
2019-04-21T09:06:17.640Z,23.40
2019-04-21T09:07:12.839Z,23.43
2019-04-21T09:08:10.730Z,23.50
2019-04-21T09:09:11.825Z,23.55
2019-04-21T09:10:11.020Z,23.55
2019-04-21T09:11:09.770Z,23.66
2019-04-21T09:12:10.814Z,23.58
2019-04-21T09:13:04.361Z,23.63
2019-04-21T09:14:07.780Z,23.66
2019-04-21T09:15:09.919Z,23.75
2019-04-21T09:16:06.701Z,23.80
2019-04-21T09:17:00.431Z,23.83
2019-04-21T09:18:02.856Z,23.90
2019-04-21T09:19:04.251Z,23.91
2019-04-21T09:20:13.995Z,23.95
2019-04-21T09:21:06.040Z,23.97
2019-04-21T09:22:07.055Z,24.08
2019-04-21T09:23:06.434Z,24.06
2019-04-21T09:24:13.361Z,24.03
2019-04-21T09:25:11.643Z,24.05
2019-04-21T09:26:05.695Z,24.03
2019-04-21T09:27:08.436Z,24.12
2019-04-21T09:28:06.970Z,24.08
2019-04-21T09:29:03.468Z,24.06
2019-04-21T09:29:55.965Z,24.09
2019-04-21T09:30:57.334Z,24.13
2019-04-21T09:31:54.138Z,24.08
2019-04-21T09:32:54.466Z,24.16
2019-04-21T09:33:53.703Z,24.16
2019-04-21T09:34:51.328Z,24.25
2019-04-21T09:35:54.606Z,24.22
2019-04-21T09:36:53.361Z,24.20
2019-04-21T09:37:57.064Z,24.35
2019-04-21T09:38:59.264Z,24.39
2019-04-21T09:39:52.435Z,24.42
2019-04-21T09:40:52.470Z,24.40
2019-04-21T09:41:53.470Z,24.52
2019-04-21T09:42:55.988Z,24.55
2019-04-21T09:43:53.674Z,24.64
2019-04-21T09:44:53.818Z,24.78
2019-04-21T09:45:49.705Z,24.78
2019-04-21T09:46:54.081Z,24.77
2019-04-21T09:47:59.019Z,24.78
2019-04-21T09:48:55.639Z,24.84
2019-04-21T09:49:49.532Z,24.98
2019-04-21T09:50:48.510Z,24.95
2019-04-21T09:51:48.493Z,24.96
2019-04-21T09:52:54.530Z,25.09
2019-04-21T09:53:58.715Z,25.10
2019-04-21T09:54:58.613Z,25.10
2019-04-21T09:55:55.872Z,25.23
2019-04-21T09:56:56.010Z,25.27
2019-04-21T09:57:54.000Z,25.28
2019-04-21T09:58:53.249Z,25.28
2019-04-21T10:00:00.152Z,25.28
2019-04-21T10:01:01.440Z,25.38
2019-04-21T10:01:58.885Z,25.40
2019-04-21T10:02:56.716Z,25.42
2019-04-21T10:03:55.203Z,25.40
2019-04-21T10:04:50.475Z,25.39
2019-04-21T10:05:49.680Z,25.50
2019-04-21T10:06:49.623Z,25.46
2019-04-21T10:07:48.937Z,25.61
2019-04-21T10:08:55.735Z,25.64
2019-04-21T10:09:49.998Z,25.72
2019-04-21T10:10:49.064Z,25.76
2019-04-21T10:11:48.285Z,25.76
2019-04-21T10:12:48.274Z,25.77
2019-04-21T10:13:48.727Z,25.87
2019-04-21T10:14:49.374Z,25.85
2019-04-21T10:15:48.581Z,25.94
2019-04-21T10:16:49.470Z,25.88
2019-04-21T10:17:49.565Z,25.95
2019-04-21T10:18:48.222Z,26.02
2019-04-21T10:19:48.541Z,26.07
2019-04-21T10:20:49.181Z,26.13
2019-04-21T10:21:48.195Z,26.21
2019-04-21T10:22:48.988Z,26.25
2019-04-21T10:23:48.171Z,26.20
2019-04-21T10:24:48.854Z,26.25
2019-04-21T10:25:48.430Z,26.26
2019-04-21T10:26:49.249Z,26.23
2019-04-21T10:27:49.403Z,26.28
2019-04-21T10:28:49.046Z,26.26
2019-04-21T10:29:49.078Z,26.25
2019-04-21T10:30:49.024Z,26.32
2019-04-21T10:31:48.202Z,26.33
2019-04-21T10:32:48.450Z,26.28
2019-04-21T10:33:48.427Z,26.32
2019-04-21T10:34:49.463Z,26.43
2019-04-21T10:35:48.934Z,26.48
2019-04-21T10:36:49.082Z,26.44
2019-04-21T10:38:01.774Z,26.50
2019-04-21T10:38:52.242Z,26.62
2019-04-21T10:39:48.034Z,26.58
2019-04-21T10:40:47.973Z,26.65
2019-04-21T10:41:47.963Z,26.57
2019-04-21T10:42:48.158Z,26.63
2019-04-21T10:43:49.246Z,26.62
2019-04-21T10:44:49.272Z,26.62
2019-04-21T10:45:48.819Z,26.69
2019-04-21T10:46:50.356Z,26.65
2019-04-21T10:47:49.240Z,26.69
2019-04-21T10:48:48.607Z,26.77
2019-04-21T10:49:48.651Z,26.76
2019-04-21T10:50:47.884Z,26.76
2019-04-21T10:51:48.881Z,26.84
2019-04-21T10:52:48.993Z,26.88
2019-04-21T10:53:52.211Z,27.00
2019-04-21T10:55:07.302Z,26.97
2019-04-21T10:56:49.547Z,26.95
2019-04-21T10:57:48.359Z,27.03
2019-04-21T10:58:47.871Z,27.10
2019-04-21T10:59:50.753Z,27.07
2019-04-21T11:00:48.429Z,27.02
2019-04-21T11:01:47.741Z,27.00
2019-04-21T11:02:48.841Z,27.03
2019-04-21T11:03:48.913Z,26.99
2019-04-21T11:04:49.011Z,27.02
2019-04-21T11:05:48.314Z,27.07
2019-04-21T11:06:48.560Z,27.09
2019-04-21T11:08:02.469Z,27.13
2019-04-21T11:08:52.436Z,27.12
2019-04-21T11:09:49.627Z,27.14
2019-04-21T11:10:47.835Z,27.12
2019-04-21T11:11:49.668Z,27.10
2019-04-21T11:12:47.915Z,27.13
2019-04-21T11:13:48.458Z,27.18
2019-04-21T11:14:47.600Z,27.13
2019-04-21T11:15:47.620Z,27.29
2019-04-21T11:16:49.312Z,27.32
2019-04-21T11:17:48.860Z,27.32
2019-04-21T11:18:48.321Z,27.39
2019-04-21T11:19:48.582Z,27.41
2019-04-21T11:20:48.875Z,27.43
2019-04-21T11:21:47.553Z,27.36
2019-04-21T11:22:47.517Z,27.41
2019-04-21T11:23:48.011Z,27.41
2019-04-21T11:24:47.497Z,27.40
2019-04-21T11:25:48.211Z,27.41
2019-04-21T11:26:47.782Z,27.41
2019-04-21T11:27:48.996Z,27.49
2019-04-21T11:28:47.460Z,27.41
2019-04-21T11:29:47.578Z,27.44
2019-04-21T11:30:48.701Z,27.57
2019-04-21T11:31:47.437Z,27.50
2019-04-21T11:32:48.251Z,27.54
2019-04-21T11:33:47.411Z,27.54
2019-04-21T11:34:47.399Z,27.67
2019-04-21T11:35:47.376Z,27.62
2019-04-21T11:36:48.078Z,27.65
2019-04-21T11:37:48.358Z,27.65
2019-04-21T11:39:05.556Z,27.75
2019-04-21T11:39:55.330Z,27.75
2019-04-21T11:40:49.669Z,27.74
2019-04-21T11:41:47.829Z,27.77
2019-04-21T11:42:48.116Z,27.81
2019-04-21T11:43:48.750Z,27.87
2019-04-21T11:44:47.281Z,27.84
2019-04-21T11:45:48.521Z,27.93
2019-04-21T11:46:48.726Z,27.99
2019-04-21T11:47:48.243Z,27.97
2019-04-21T11:48:48.372Z,27.97
2019-04-21T11:49:47.262Z,27.90
2019-04-21T11:50:47.237Z,27.94
2019-04-21T11:51:47.197Z,27.92
2019-04-21T11:52:47.343Z,27.87
2019-04-21T11:53:47.189Z,27.87
2019-04-21T11:54:47.166Z,27.87
2019-04-21T11:55:50.168Z,27.97
2019-04-21T11:56:48.452Z,27.87
2019-04-21T11:57:49.775Z,27.99
2019-04-21T11:58:47.801Z,28.03
2019-04-21T11:59:48.001Z,28.07
2019-04-21T12:00:47.469Z,28.03
2019-04-21T12:01:47.622Z,27.94
2019-04-21T12:02:47.741Z,27.78
2019-04-21T12:03:47.543Z,27.77
2019-04-21T12:04:47.564Z,27.77
2019-04-21T12:05:47.750Z,27.72
2019-04-21T12:06:48.843Z,27.66
2019-04-21T12:07:47.237Z,27.77
2019-04-21T12:08:49.895Z,27.67
2019-04-21T12:09:48.004Z,27.72
2019-04-21T12:10:47.337Z,27.72
2019-04-21T12:11:47.408Z,27.82
2019-04-21T12:12:47.527Z,27.81
2019-04-21T12:13:47.937Z,27.72
2019-04-21T12:14:48.009Z,27.75
2019-04-21T12:15:47.199Z,27.74
2019-04-21T12:16:46.931Z,27.81
2019-04-21T12:17:48.079Z,27.78
2019-04-21T12:18:47.234Z,27.79
2019-04-21T12:19:46.906Z,27.87
2019-04-21T12:20:47.345Z,27.92
2019-04-21T12:21:58.952Z,28.00
2019-04-21T12:22:47.865Z,27.96
2019-04-21T12:23:48.027Z,28.04
2019-04-21T12:24:47.130Z,28.12
2019-04-21T12:25:47.345Z,27.97
2019-04-21T12:26:46.829Z,28.00
2019-04-21T12:27:47.856Z,28.03
2019-04-21T12:28:47.908Z,28.07
2019-04-21T12:29:48.017Z,28.03
2019-04-21T12:30:47.363Z,28.07
2019-04-21T12:31:47.634Z,28.12
2019-04-21T12:32:46.782Z,28.12
2019-04-21T12:33:47.810Z,28.11
2019-04-21T12:34:49.820Z,28.15
2019-04-21T12:35:48.070Z,28.21
2019-04-21T12:36:46.739Z,28.27
2019-04-21T12:37:46.919Z,28.25
2019-04-21T12:38:50.954Z,28.22
2019-04-21T12:39:48.612Z,28.21
2019-04-21T12:40:46.693Z,28.21
2019-04-21T12:41:46.740Z,28.21
2019-04-21T12:42:46.650Z,28.18
2019-04-21T12:43:46.701Z,28.29
2019-04-21T12:44:47.547Z,28.29
2019-04-21T12:45:46.622Z,28.22
2019-04-21T12:46:47.732Z,28.24
2019-04-21T12:47:49.958Z,28.27
2019-04-21T12:48:46.586Z,28.34
2019-04-21T12:49:47.756Z,28.36
2019-04-21T12:50:47.955Z,28.27
2019-04-21T12:51:47.936Z,28.39
2019-04-21T12:52:47.463Z,28.31
2019-04-21T12:53:47.778Z,28.39
2019-04-21T12:54:47.920Z,28.34
2019-04-21T12:55:48.015Z,28.41
2019-04-21T12:56:47.670Z,28.25
2019-04-21T12:57:47.686Z,28.31
2019-04-21T12:58:47.126Z,28.27
2019-04-21T12:59:46.743Z,28.37
2019-04-21T13:00:47.132Z,28.41
2019-04-21T13:01:46.457Z,28.37
2019-04-21T13:02:47.728Z,28.37
2019-04-21T13:03:46.439Z,28.37
2019-04-21T13:04:46.439Z,28.30
2019-04-21T13:05:47.463Z,28.39
2019-04-21T13:06:47.556Z,28.18
2019-04-21T13:07:46.386Z,28.25
2019-04-21T13:08:54.475Z,28.24
2019-04-21T13:09:48.468Z,28.22
2019-04-21T13:10:46.493Z,28.25
2019-04-21T13:11:46.864Z,28.24
2019-04-21T13:12:46.331Z,28.24
2019-04-21T13:13:46.318Z,28.24
2019-04-21T13:14:47.403Z,28.21
2019-04-21T13:15:47.346Z,28.17
2019-04-21T13:16:47.669Z,28.06
2019-04-21T13:17:47.370Z,28.12
2019-04-21T13:18:47.124Z,28.09
2019-04-21T13:19:47.291Z,28.06
2019-04-21T13:20:46.410Z,28.11
2019-04-21T13:21:46.235Z,28.06
2019-04-21T13:22:46.243Z,28.06
2019-04-21T13:23:47.228Z,27.96
2019-04-21T13:24:47.518Z,27.97
2019-04-21T13:25:46.210Z,27.96
2019-04-21T13:26:52.739Z,27.87
2019-04-21T13:27:47.309Z,27.82
2019-04-21T13:28:46.164Z,27.84
2019-04-21T13:29:46.287Z,27.88
2019-04-21T13:30:46.400Z,27.75
2019-04-21T13:31:46.144Z,27.78
2019-04-21T13:32:47.059Z,27.72
2019-04-21T13:33:46.164Z,27.78
2019-04-21T13:34:47.743Z,27.88
2019-04-21T13:35:46.805Z,27.90
2019-04-21T13:36:47.584Z,27.87
2019-04-21T13:37:46.065Z,28.03
2019-04-21T13:39:23.200Z,28.04
2019-04-21T13:40:09.598Z,28.03
2019-04-21T13:41:02.154Z,27.88
2019-04-21T13:41:58.954Z,28.04
2019-04-21T13:42:53.216Z,27.92
2019-04-21T13:43:47.490Z,28.00
2019-04-21T13:44:46.639Z,28.03
2019-04-21T13:45:46.184Z,27.99
2019-04-21T13:46:47.195Z,27.97
2019-04-21T13:47:46.280Z,28.09
2019-04-21T13:48:46.564Z,28.07
2019-04-21T13:49:47.489Z,28.12
2019-04-21T13:50:47.079Z,28.06